Portville, New York
Current Conditions -  °F | °C
As of 8:55 PM on Wednesday 26 Nov 2014 (Local Time) from KOLE Reporting Station
Overcast Overcast  
Wind Chill: -8°   Ceiling: 800
Heat Index: -3°   Visibility: 10mi
Dew Point: -3°   Wind: 8mph
Humidity: 100%   Direction: 60°ENE
Pressure: 29.94"   Gusts: NA
Location:  42.04°N, 78.34°W
Report Text: KOLE 270155Z AUTO 06007KT 10SM OVC008 M03/M03 A2994 RMK AO2
Loading
Personal Weather Stations






























Interactive Weather Map New forecast layout! Learn more

10-Day Weather Forecast

Advertisements
Track Severe Weather on mobile